sensor_id;sensor_type;location;lat;lon;timestamp;P1;durP1;ratioP1;P2;durP2;ratioP2
60014;SDS011;45867;52.480;6.056;2022-07-30T00:03:18;23.60;;;12.07;;
60014;SDS011;45867;52.480;6.056;2022-07-30T00:06:07;23.10;;;12.32;;
60014;SDS011;45867;52.480;6.056;2022-07-30T00:12:54;26.88;;;11.45;;
60014;SDS011;45867;52.480;6.056;2022-07-30T00:16:04;36.78;;;12.05;;
60014;SDS011;45867;52.480;6.056;2022-07-30T00:18:50;23.10;;;11.90;;
60014;SDS011;45867;52.480;6.056;2022-07-30T00:21:58;25.67;;;11.37;;
60014;SDS011;45867;52.480;6.056;2022-07-30T00:25:18;22.75;;;12.25;;
60014;SDS011;45867;52.480;6.056;2022-07-30T00:28:33;22.58;;;11.55;;
60014;SDS011;45867;52.480;6.056;2022-07-30T00:31:46;23.77;;;11.75;;
60014;SDS011;45867;52.480;6.056;2022-07-30T00:35:15;23.75;;;11.93;;
60014;SDS011;45867;52.480;6.056;2022-07-30T00:38:50;21.67;;;11.18;;
60014;SDS011;45867;52.480;6.056;2022-07-30T00:41:51;22.25;;;12.43;;
60014;SDS011;45867;52.480;6.056;2022-07-30T00:51:45;25.92;;;12.27;;
60014;SDS011;45867;52.480;6.056;2022-07-30T00:54:31;24.67;;;12.02;;
60014;SDS011;45867;52.480;6.056;2022-07-30T01:52:24;29.45;;;14.60;;
60014;SDS011;45867;52.480;6.056;2022-07-30T02:06:25;35.47;;;14.77;;
60014;SDS011;45867;52.480;6.056;2022-07-30T02:12:45;38.20;;;15.63;;
60014;SDS011;45867;52.480;6.056;2022-07-30T02:29:28;29.20;;;14.60;;
60014;SDS011;45867;52.480;6.056;2022-07-30T02:40:17;30.48;;;13.50;;
60014;SDS011;45867;52.480;6.056;2022-07-30T02:50:08;29.63;;;13.02;;
60014;SDS011;45867;52.480;6.056;2022-07-30T03:00:30;19.58;;;11.30;;
60014;SDS011;45867;52.480;6.056;2022-07-30T03:13:05;35.92;;;12.60;;
60014;SDS011;45867;52.480;6.056;2022-07-30T03:22:54;24.40;;;11.05;;
60014;SDS011;45867;52.480;6.056;2022-07-30T03:25:46;29.77;;;12.35;;
60014;SDS011;45867;52.480;6.056;2022-07-30T03:28:24;24.17;;;12.23;;
60014;SDS011;45867;52.480;6.056;2022-07-30T03:44:08;21.77;;;11.98;;
60014;SDS011;45867;52.480;6.056;2022-07-30T03:57:46;30.58;;;12.07;;
60014;SDS011;45867;52.480;6.056;2022-07-30T04:15:08;21.48;;;11.18;;
60014;SDS011;45867;52.480;6.056;2022-07-30T04:27:30;19.27;;;10.75;;
60014;SDS011;45867;52.480;6.056;2022-07-30T04:29:56;22.08;;;10.93;;
60014;SDS011;45867;52.480;6.056;2022-07-30T04:32:21;33.55;;;11.15;;
60014;SDS011;45867;52.480;6.056;2022-07-30T04:34:47;23.48;;;10.57;;
60014;SDS011;45867;52.480;6.056;2022-07-30T04:37:16;25.38;;;10.70;;
60014;SDS011;45867;52.480;6.056;2022-07-30T04:39:42;27.42;;;10.80;;
60014;SDS011;45867;52.480;6.056;2022-07-30T04:42:07;24.95;;;11.15;;
60014;SDS011;45867;52.480;6.056;2022-07-30T04:44:32;27.63;;;11.10;;
60014;SDS011;45867;52.480;6.056;2022-07-30T04:46:58;22.98;;;10.77;;
60014;SDS011;45867;52.480;6.056;2022-07-30T04:49:23;22.50;;;10.60;;
60014;SDS011;45867;52.480;6.056;2022-07-30T04:51:49;20.20;;;9.93;;
60014;SDS011;45867;52.480;6.056;2022-07-30T04:54:14;16.95;;;9.38;;
60014;SDS011;45867;52.480;6.056;2022-07-30T04:56:40;20.92;;;9.95;;
60014;SDS011;45867;52.480;6.056;2022-07-30T04:59:06;18.50;;;9.95;;
60014;SDS011;45867;52.480;6.056;2022-07-30T05:01:34;27.92;;;10.43;;
60014;SDS011;45867;52.480;6.056;2022-07-30T05:04:00;36.95;;;10.05;;
60014;SDS011;45867;52.480;6.056;2022-07-30T05:06:26;24.83;;;10.45;;
60014;SDS011;45867;52.480;6.056;2022-07-30T05:08:51;26.98;;;10.15;;
60014;SDS011;45867;52.480;6.056;2022-07-30T05:11:17;19.73;;;9.40;;
60014;SDS011;45867;52.480;6.056;2022-07-30T05:13:47;22.95;;;10.20;;
60014;SDS011;45867;52.480;6.056;2022-07-30T05:16:13;27.83;;;9.30;;
60014;SDS011;45867;52.480;6.056;2022-07-30T05:18:38;20.10;;;9.70;;
60014;SDS011;45867;52.480;6.056;2022-07-30T05:21:04;21.73;;;10.25;;
60014;SDS011;45867;52.480;6.056;2022-07-30T05:23:32;20.60;;;9.73;;
60014;SDS011;45867;52.480;6.056;2022-07-30T05:25:57;19.23;;;9.05;;
60014;SDS011;45867;52.480;6.056;2022-07-30T05:28:23;22.15;;;9.45;;
60014;SDS011;45867;52.480;6.056;2022-07-30T05:30:51;18.17;;;9.50;;
60014;SDS011;45867;52.480;6.056;2022-07-30T05:33:16;17.88;;;8.25;;
60014;SDS011;45867;52.480;6.056;2022-07-30T05:35:42;20.08;;;8.13;;
60014;SDS011;45867;52.480;6.056;2022-07-30T05:38:07;15.43;;;8.27;;
60014;SDS011;45867;52.480;6.056;2022-07-30T05:40:33;21.80;;;8.00;;
60014;SDS011;45867;52.480;6.056;2022-07-30T05:42:58;13.23;;;7.05;;
60014;SDS011;45867;52.480;6.056;2022-07-30T05:45:23;20.17;;;7.43;;
60014;SDS011;45867;52.480;6.056;2022-07-30T05:47:49;23.00;;;7.57;;
60014;SDS011;45867;52.480;6.056;2022-07-30T05:50:14;23.83;;;7.30;;
60014;SDS011;45867;52.480;6.056;2022-07-30T05:52:39;17.00;;;6.25;;
60014;SDS011;45867;52.480;6.056;2022-07-30T05:55:08;15.93;;;6.63;;
60014;SDS011;45867;52.480;6.056;2022-07-30T05:57:36;16.40;;;6.55;;
60014;SDS011;45867;52.480;6.056;2022-07-30T06:00:06;16.83;;;6.32;;
60014;SDS011;45867;52.480;6.056;2022-07-30T06:02:32;17.17;;;5.80;;
60014;SDS011;45867;52.480;6.056;2022-07-30T06:04:57;13.55;;;5.40;;
60014;SDS011;45867;52.480;6.056;2022-07-30T06:07:23;13.88;;;6.18;;
60014;SDS011;45867;52.480;6.056;2022-07-30T06:09:48;16.60;;;5.55;;
60014;SDS011;45867;52.480;6.056;2022-07-30T06:12:14;12.82;;;4.93;;
60014;SDS011;45867;52.480;6.056;2022-07-30T06:14:39;12.07;;;5.37;;
60014;SDS011;45867;52.480;6.056;2022-07-30T06:17:04;16.23;;;5.75;;
60014;SDS011;45867;52.480;6.056;2022-07-30T06:19:29;12.88;;;5.80;;
60014;SDS011;45867;52.480;6.056;2022-07-30T06:21:55;14.68;;;4.93;;
60014;SDS011;45867;52.480;6.056;2022-07-30T06:24:20;11.38;;;4.70;;
60014;SDS011;45867;52.480;6.056;2022-07-30T06:26:45;11.05;;;5.05;;
60014;SDS011;45867;52.480;6.056;2022-07-30T06:29:11;13.55;;;5.10;;
60014;SDS011;45867;52.480;6.056;2022-07-30T06:31:36;12.20;;;4.85;;
60014;SDS011;45867;52.480;6.056;2022-07-30T06:34:04;16.45;;;4.65;;
60014;SDS011;45867;52.480;6.056;2022-07-30T06:36:29;16.60;;;4.85;;
60014;SDS011;45867;52.480;6.056;2022-07-30T06:38:55;13.43;;;4.50;;
60014;SDS011;45867;52.480;6.056;2022-07-30T06:41:20;11.55;;;4.50;;
60014;SDS011;45867;52.480;6.056;2022-07-30T06:43:45;15.30;;;4.93;;
60014;SDS011;45867;52.480;6.056;2022-07-30T06:46:13;13.93;;;4.63;;
60014;SDS011;45867;52.480;6.056;2022-07-30T06:48:44;15.90;;;4.60;;
60014;SDS011;45867;52.480;6.056;2022-07-30T06:51:09;12.18;;;4.95;;
60014;SDS011;45867;52.480;6.056;2022-07-30T06:53:34;11.45;;;5.00;;
60014;SDS011;45867;52.480;6.056;2022-07-30T06:56:00;16.20;;;4.88;;
60014;SDS011;45867;52.480;6.056;2022-07-30T06:58:28;11.05;;;4.60;;
60014;SDS011;45867;52.480;6.056;2022-07-30T07:00:54;12.60;;;4.40;;
60014;SDS011;45867;52.480;6.056;2022-07-30T07:03:22;16.38;;;5.78;;
60014;SDS011;45867;52.480;6.056;2022-07-30T07:05:50;15.13;;;5.18;;
60014;SDS011;45867;52.480;6.056;2022-07-30T07:08:15;13.93;;;5.68;;
60014;SDS011;45867;52.480;6.056;2022-07-30T07:10:40;12.57;;;5.10;;
60014;SDS011;45867;52.480;6.056;2022-07-30T07:13:12;14.07;;;5.40;;
60014;SDS011;45867;52.480;6.056;2022-07-30T07:15:37;13.60;;;5.07;;
60014;SDS011;45867;52.480;6.056;2022-07-30T07:18:05;11.88;;;4.07;;
60014;SDS011;45867;52.480;6.056;2022-07-30T07:20:31;7.85;;;4.38;;
60014;SDS011;45867;52.480;6.056;2022-07-30T07:22:56;14.73;;;4.35;;
60014;SDS011;45867;52.480;6.056;2022-07-30T07:25:24;10.32;;;4.22;;
60014;SDS011;45867;52.480;6.056;2022-07-30T07:27:50;12.48;;;3.78;;
60014;SDS011;45867;52.480;6.056;2022-07-30T07:30:15;13.88;;;3.88;;
60014;SDS011;45867;52.480;6.056;2022-07-30T07:32:40;10.43;;;3.73;;
60014;SDS011;45867;52.480;6.056;2022-07-30T07:35:05;11.48;;;3.65;;
60014;SDS011;45867;52.480;6.056;2022-07-30T07:37:31;13.52;;;3.30;;
60014;SDS011;45867;52.480;6.056;2022-07-30T07:39:56;10.73;;;3.20;;
60014;SDS011;45867;52.480;6.056;2022-07-30T07:42:21;10.53;;;3.80;;
60014;SDS011;45867;52.480;6.056;2022-07-30T07:44:47;10.55;;;3.65;;
60014;SDS011;45867;52.480;6.056;2022-07-30T07:47:12;14.77;;;3.97;;
60014;SDS011;45867;52.480;6.056;2022-07-30T07:49:40;10.50;;;3.65;;
60014;SDS011;45867;52.480;6.056;2022-07-30T07:52:06;10.93;;;3.78;;
60014;SDS011;45867;52.480;6.056;2022-07-30T07:54:31;12.03;;;3.50;;
60014;SDS011;45867;52.480;6.056;2022-07-30T07:56:57;15.25;;;3.90;;
60014;SDS011;45867;52.480;6.056;2022-07-30T07:59:23;9.50;;;3.50;;
60014;SDS011;45867;52.480;6.056;2022-07-30T08:01:48;16.15;;;3.75;;
60014;SDS011;45867;52.480;6.056;2022-07-30T08:04:14;11.43;;;3.60;;
60014;SDS011;45867;52.480;6.056;2022-07-30T08:06:39;8.10;;;2.97;;
60014;SDS011;45867;52.480;6.056;2022-07-30T08:09:04;12.48;;;3.90;;
60014;SDS011;45867;52.480;6.056;2022-07-30T08:11:32;9.45;;;3.35;;
60014;SDS011;45867;52.480;6.056;2022-07-30T08:13:57;11.63;;;3.20;;
60014;SDS011;45867;52.480;6.056;2022-07-30T08:16:23;8.70;;;3.50;;
60014;SDS011;45867;52.480;6.056;2022-07-30T08:18:48;14.30;;;3.50;;
60014;SDS011;45867;52.480;6.056;2022-07-30T08:21:13;6.75;;;3.13;;
60014;SDS011;45867;52.480;6.056;2022-07-30T08:23:39;10.38;;;3.63;;
60014;SDS011;45867;52.480;6.056;2022-07-30T08:26:04;8.27;;;3.08;;
60014;SDS011;45867;52.480;6.056;2022-07-30T08:28:30;6.45;;;2.83;;
60014;SDS011;45867;52.480;6.056;2022-07-30T08:30:55;13.93;;;3.33;;
60014;SDS011;45867;52.480;6.056;2022-07-30T08:33:20;10.57;;;3.20;;
60014;SDS011;45867;52.480;6.056;2022-07-30T08:35:46;17.45;;;4.00;;
60014;SDS011;45867;52.480;6.056;2022-07-30T08:38:11;9.90;;;3.15;;
60014;SDS011;45867;52.480;6.056;2022-07-30T08:40:37;11.65;;;3.22;;
60014;SDS011;45867;52.480;6.056;2022-07-30T08:43:03;10.30;;;3.13;;
60014;SDS011;45867;52.480;6.056;2022-07-30T08:45:32;7.03;;;3.30;;
60014;SDS011;45867;52.480;6.056;2022-07-30T08:47:58;14.40;;;3.40;;
60014;SDS011;45867;52.480;6.056;2022-07-30T08:50:24;9.23;;;3.13;;
60014;SDS011;45867;52.480;6.056;2022-07-30T08:52:49;9.43;;;3.35;;
60014;SDS011;45867;52.480;6.056;2022-07-30T08:55:15;7.25;;;2.83;;
60014;SDS011;45867;52.480;6.056;2022-07-30T08:57:40;16.42;;;3.20;;
60014;SDS011;45867;52.480;6.056;2022-07-30T09:00:06;7.05;;;2.90;;
60014;SDS011;45867;52.480;6.056;2022-07-30T09:02:33;9.38;;;3.08;;
60014;SDS011;45867;52.480;6.056;2022-07-30T09:04:58;8.60;;;2.65;;
60014;SDS011;45867;52.480;6.056;2022-07-30T09:07:24;7.72;;;2.75;;
60014;SDS011;45867;52.480;6.056;2022-07-30T09:09:50;8.93;;;3.08;;
60014;SDS011;45867;52.480;6.056;2022-07-30T09:12:34;11.02;;;3.17;;
60014;SDS011;45867;52.480;6.056;2022-07-30T09:15:03;7.18;;;3.03;;
60014;SDS011;45867;52.480;6.056;2022-07-30T09:17:42;9.32;;;2.58;;
60014;SDS011;45867;52.480;6.056;2022-07-30T09:20:07;8.30;;;2.80;;
60014;SDS011;45867;52.480;6.056;2022-07-30T09:22:40;17.05;;;3.35;;
60014;SDS011;45867;52.480;6.056;2022-07-30T09:25:07;7.60;;;2.58;;
60014;SDS011;45867;52.480;6.056;2022-07-30T09:27:45;7.10;;;2.72;;
60014;SDS011;45867;52.480;6.056;2022-07-30T09:30:10;12.48;;;2.65;;
60014;SDS011;45867;52.480;6.056;2022-07-30T09:32:46;7.40;;;2.25;;
60014;SDS011;45867;52.480;6.056;2022-07-30T09:35:12;7.45;;;2.30;;
60014;SDS011;45867;52.480;6.056;2022-07-30T09:37:38;7.07;;;2.20;;
60014;SDS011;45867;52.480;6.056;2022-07-30T09:40:14;8.38;;;2.53;;
60014;SDS011;45867;52.480;6.056;2022-07-30T09:42:39;6.55;;;2.17;;
60014;SDS011;45867;52.480;6.056;2022-07-30T09:45:06;5.07;;;2.10;;
60014;SDS011;45867;52.480;6.056;2022-07-30T09:47:38;7.30;;;2.30;;
60014;SDS011;45867;52.480;6.056;2022-07-30T09:50:10;6.85;;;2.25;;
60014;SDS011;45867;52.480;6.056;2022-07-30T09:52:36;11.02;;;2.60;;
60014;SDS011;45867;52.480;6.056;2022-07-30T09:55:02;6.20;;;2.60;;
60014;SDS011;45867;52.480;6.056;2022-07-30T09:57:27;14.48;;;2.60;;
60014;SDS011;45867;52.480;6.056;2022-07-30T09:59:56;5.65;;;2.30;;
60014;SDS011;45867;52.480;6.056;2022-07-30T10:02:32;7.75;;;2.50;;
60014;SDS011;45867;52.480;6.056;2022-07-30T10:05:07;12.98;;;2.60;;
60014;SDS011;45867;52.480;6.056;2022-07-30T10:07:32;10.18;;;2.30;;
60014;SDS011;45867;52.480;6.056;2022-07-30T10:09:57;15.15;;;2.90;;
60014;SDS011;45867;52.480;6.056;2022-07-30T10:12:23;5.10;;;2.47;;
60014;SDS011;45867;52.480;6.056;2022-07-30T10:14:49;11.60;;;2.70;;
60014;SDS011;45867;52.480;6.056;2022-07-30T10:17:16;5.28;;;2.28;;
60014;SDS011;45867;52.480;6.056;2022-07-30T10:19:42;10.40;;;2.95;;
60014;SDS011;45867;52.480;6.056;2022-07-30T10:22:07;10.50;;;2.63;;
60014;SDS011;45867;52.480;6.056;2022-07-30T10:24:33;7.95;;;2.70;;
60014;SDS011;45867;52.480;6.056;2022-07-30T10:26:59;7.97;;;2.92;;
60014;SDS011;45867;52.480;6.056;2022-07-30T10:29:24;9.85;;;2.25;;
60014;SDS011;45867;52.480;6.056;2022-07-30T10:31:49;5.65;;;2.80;;
60014;SDS011;45867;52.480;6.056;2022-07-30T10:34:16;15.82;;;2.90;;
60014;SDS011;45867;52.480;6.056;2022-07-30T10:37:03;11.48;;;2.75;;
60014;SDS011;45867;52.480;6.056;2022-07-30T10:39:29;8.45;;;2.90;;
60014;SDS011;45867;52.480;6.056;2022-07-30T10:47:16;8.53;;;2.63;;
60014;SDS011;45867;52.480;6.056;2022-07-30T10:52:43;7.68;;;2.60;;
60014;SDS011;45867;52.480;6.056;2022-07-30T10:55:13;9.45;;;2.50;;
60014;SDS011;45867;52.480;6.056;2022-07-30T10:57:58;7.80;;;2.13;;
60014;SDS011;45867;52.480;6.056;2022-07-30T11:00:23;10.85;;;2.42;;
60014;SDS011;45867;52.480;6.056;2022-07-30T11:05:33;8.02;;;2.60;;
60014;SDS011;45867;52.480;6.056;2022-07-30T11:10:44;5.38;;;2.55;;
60014;SDS011;45867;52.480;6.056;2022-07-30T11:13:09;7.10;;;2.53;;
60014;SDS011;45867;52.480;6.056;2022-07-30T11:15:51;7.57;;;2.30;;
60014;SDS011;45867;52.480;6.056;2022-07-30T11:18:20;6.82;;;2.47;;
60014;SDS011;45867;52.480;6.056;2022-07-30T11:23:39;6.97;;;2.22;;
60014;SDS011;45867;52.480;6.056;2022-07-30T11:26:08;7.15;;;2.17;;
60014;SDS011;45867;52.480;6.056;2022-07-30T11:28:41;4.70;;;2.53;;
60014;SDS011;45867;52.480;6.056;2022-07-30T11:33:50;6.65;;;2.20;;
60014;SDS011;45867;52.480;6.056;2022-07-30T11:36:16;6.72;;;2.47;;
60014;SDS011;45867;52.480;6.056;2022-07-30T11:41:15;5.57;;;2.40;;
60014;SDS011;45867;52.480;6.056;2022-07-30T11:43:42;4.93;;;2.13;;
60014;SDS011;45867;52.480;6.056;2022-07-30T11:46:09;9.30;;;2.30;;
60014;SDS011;45867;52.480;6.056;2022-07-30T11:48:35;6.18;;;2.05;;
60014;SDS011;45867;52.480;6.056;2022-07-30T11:51:00;7.22;;;2.38;;
60014;SDS011;45867;52.480;6.056;2022-07-30T11:53:26;9.65;;;2.17;;
60014;SDS011;45867;52.480;6.056;2022-07-30T11:55:53;9.70;;;2.58;;
60014;SDS011;45867;52.480;6.056;2022-07-30T11:58:30;6.72;;;2.38;;
60014;SDS011;45867;52.480;6.056;2022-07-30T12:01:04;5.90;;;2.03;;
60014;SDS011;45867;52.480;6.056;2022-07-30T12:03:30;10.80;;;2.60;;
60014;SDS011;45867;52.480;6.056;2022-07-30T12:05:56;4.85;;;2.38;;
60014;SDS011;45867;52.480;6.056;2022-07-30T12:10:56;9.80;;;1.92;;
60014;SDS011;45867;52.480;6.056;2022-07-30T12:13:21;9.30;;;2.28;;
60014;SDS011;45867;52.480;6.056;2022-07-30T12:15:47;4.97;;;2.13;;
60014;SDS011;45867;52.480;6.056;2022-07-30T12:18:14;5.85;;;2.28;;
60014;SDS011;45867;52.480;6.056;2022-07-30T12:20:51;6.15;;;2.13;;
60014;SDS011;45867;52.480;6.056;2022-07-30T12:23:17;7.72;;;2.10;;
60014;SDS011;45867;52.480;6.056;2022-07-30T12:25:42;9.88;;;2.10;;
60014;SDS011;45867;52.480;6.056;2022-07-30T12:28:08;4.20;;;1.75;;
60014;SDS011;45867;52.480;6.056;2022-07-30T12:30:36;4.47;;;1.90;;
60014;SDS011;45867;52.480;6.056;2022-07-30T12:33:02;6.68;;;2.05;;
60014;SDS011;45867;52.480;6.056;2022-07-30T12:38:12;6.32;;;1.88;;
60014;SDS011;45867;52.480;6.056;2022-07-30T12:43:40;4.32;;;2.05;;
60014;SDS011;45867;52.480;6.056;2022-07-30T12:46:03;6.13;;;2.00;;
60014;SDS011;45867;52.480;6.056;2022-07-30T12:48:29;5.05;;;1.90;;
60014;SDS011;45867;52.480;6.056;2022-07-30T12:51:06;7.72;;;2.10;;
60014;SDS011;45867;52.480;6.056;2022-07-30T12:53:32;6.60;;;1.90;;
60014;SDS011;45867;52.480;6.056;2022-07-30T12:56:13;10.00;;;2.10;;
60014;SDS011;45867;52.480;6.056;2022-07-30T12:58:40;7.28;;;2.28;;
60014;SDS011;45867;52.480;6.056;2022-07-30T13:01:06;10.32;;;2.40;;
60014;SDS011;45867;52.480;6.056;2022-07-30T13:03:31;4.22;;;1.83;;
60014;SDS011;45867;52.480;6.056;2022-07-30T13:06:18;4.68;;;2.00;;
60014;SDS011;45867;52.480;6.056;2022-07-30T13:11:10;9.90;;;2.08;;
60014;SDS011;45867;52.480;6.056;2022-07-30T13:13:36;6.60;;;2.13;;
60014;SDS011;45867;52.480;6.056;2022-07-30T13:16:02;9.05;;;2.20;;
60014;SDS011;45867;52.480;6.056;2022-07-30T13:18:28;7.38;;;2.05;;
60014;SDS011;45867;52.480;6.056;2022-07-30T13:20:54;6.68;;;2.10;;
60014;SDS011;45867;52.480;6.056;2022-07-30T13:23:20;4.90;;;1.70;;
60014;SDS011;45867;52.480;6.056;2022-07-30T13:25:45;10.63;;;2.45;;
60014;SDS011;45867;52.480;6.056;2022-07-30T13:28:11;6.00;;;1.90;;
60014;SDS011;45867;52.480;6.056;2022-07-30T13:30:36;5.88;;;2.10;;
60014;SDS011;45867;52.480;6.056;2022-07-30T13:33:01;7.47;;;2.10;;
60014;SDS011;45867;52.480;6.056;2022-07-30T13:35:26;5.80;;;1.90;;
60014;SDS011;45867;52.480;6.056;2022-07-30T13:37:52;6.88;;;2.15;;
60014;SDS011;45867;52.480;6.056;2022-07-30T13:40:17;6.67;;;1.90;;
60014;SDS011;45867;52.480;6.056;2022-07-30T13:42:42;6.35;;;1.90;;
60014;SDS011;45867;52.480;6.056;2022-07-30T13:45:08;15.10;;;1.92;;
60014;SDS011;45867;52.480;6.056;2022-07-30T13:47:33;4.35;;;1.70;;
60014;SDS011;45867;52.480;6.056;2022-07-30T13:49:59;5.95;;;2.20;;
60014;SDS011;45867;52.480;6.056;2022-07-30T13:52:25;4.97;;;1.67;;
60014;SDS011;45867;52.480;6.056;2022-07-30T13:54:50;4.73;;;1.80;;
60014;SDS011;45867;52.480;6.056;2022-07-30T13:57:17;8.95;;;1.90;;
60014;SDS011;45867;52.480;6.056;2022-07-30T13:59:42;7.65;;;1.70;;
60014;SDS011;45867;52.480;6.056;2022-07-30T14:02:08;6.13;;;2.00;;
60014;SDS011;45867;52.480;6.056;2022-07-30T14:04:33;3.65;;;1.88;;
60014;SDS011;45867;52.480;6.056;2022-07-30T14:06:58;5.03;;;1.87;;
60014;SDS011;45867;52.480;6.056;2022-07-30T14:09:27;4.63;;;2.03;;
60014;SDS011;45867;52.480;6.056;2022-07-30T14:11:52;4.13;;;1.80;;
60014;SDS011;45867;52.480;6.056;2022-07-30T14:14:18;5.93;;;1.90;;
60014;SDS011;45867;52.480;6.056;2022-07-30T14:16:43;4.53;;;2.00;;
60014;SDS011;45867;52.480;6.056;2022-07-30T14:19:11;4.70;;;1.88;;
60014;SDS011;45867;52.480;6.056;2022-07-30T14:21:39;3.78;;;1.65;;
60014;SDS011;45867;52.480;6.056;2022-07-30T14:24:06;7.97;;;2.00;;
60014;SDS011;45867;52.480;6.056;2022-07-30T14:26:35;7.90;;;2.20;;
60014;SDS011;45867;52.480;6.056;2022-07-30T14:29:15;6.70;;;2.00;;
60014;SDS011;45867;52.480;6.056;2022-07-30T14:32:02;5.20;;;1.70;;
60014;SDS011;45867;52.480;6.056;2022-07-30T14:34:26;4.60;;;1.95;;
60014;SDS011;45867;52.480;6.056;2022-07-30T14:37:02;3.65;;;1.42;;
60014;SDS011;45867;52.480;6.056;2022-07-30T14:39:37;10.18;;;1.73;;
60014;SDS011;45867;52.480;6.056;2022-07-30T14:42:03;4.97;;;1.77;;
60014;SDS011;45867;52.480;6.056;2022-07-30T14:44:30;6.75;;;2.10;;
60014;SDS011;45867;52.480;6.056;2022-07-30T14:46:58;5.80;;;1.70;;
60014;SDS011;45867;52.480;6.056;2022-07-30T14:49:32;4.10;;;1.55;;
60014;SDS011;45867;52.480;6.056;2022-07-30T14:51:58;4.80;;;1.70;;
60014;SDS011;45867;52.480;6.056;2022-07-30T14:54:23;4.10;;;1.52;;
60014;SDS011;45867;52.480;6.056;2022-07-30T14:56:48;4.78;;;1.90;;
60014;SDS011;45867;52.480;6.056;2022-07-30T14:59:14;6.07;;;1.67;;
60014;SDS011;45867;52.480;6.056;2022-07-30T15:01:40;4.85;;;1.98;;
60014;SDS011;45867;52.480;6.056;2022-07-30T15:04:06;10.55;;;1.70;;
60014;SDS011;45867;52.480;6.056;2022-07-30T15:06:33;8.35;;;1.83;;
60014;SDS011;45867;52.480;6.056;2022-07-30T15:09:02;6.18;;;2.10;;
60014;SDS011;45867;52.480;6.056;2022-07-30T15:11:27;2.60;;;1.60;;
60014;SDS011;45867;52.480;6.056;2022-07-30T15:13:53;5.13;;;1.83;;
60014;SDS011;45867;52.480;6.056;2022-07-30T15:16:18;6.97;;;1.80;;
60014;SDS011;45867;52.480;6.056;2022-07-30T15:18:44;3.63;;;2.00;;
60014;SDS011;45867;52.480;6.056;2022-07-30T15:21:09;10.77;;;2.88;;
60014;SDS011;45867;52.480;6.056;2022-07-30T15:23:36;3.55;;;1.70;;
60014;SDS011;45867;52.480;6.056;2022-07-30T15:28:47;6.65;;;2.72;;
60014;SDS011;45867;52.480;6.056;2022-07-30T15:31:12;6.47;;;1.77;;
60014;SDS011;45867;52.480;6.056;2022-07-30T15:33:40;5.18;;;2.03;;
60014;SDS011;45867;52.480;6.056;2022-07-30T15:36:08;4.72;;;1.95;;
60014;SDS011;45867;52.480;6.056;2022-07-30T15:38:34;3.03;;;1.70;;
60014;SDS011;45867;52.480;6.056;2022-07-30T15:41:03;8.63;;;2.00;;
60014;SDS011;45867;52.480;6.056;2022-07-30T15:43:28;5.55;;;1.70;;
60014;SDS011;45867;52.480;6.056;2022-07-30T15:45:53;7.88;;;2.00;;
60014;SDS011;45867;52.480;6.056;2022-07-30T15:48:19;8.07;;;2.00;;
60014;SDS011;45867;52.480;6.056;2022-07-30T15:50:44;9.13;;;1.90;;
60014;SDS011;45867;52.480;6.056;2022-07-30T15:53:12;9.13;;;1.90;;
60014;SDS011;45867;52.480;6.056;2022-07-30T15:55:37;5.35;;;1.90;;
60014;SDS011;45867;52.480;6.056;2022-07-30T15:58:03;6.20;;;2.28;;
60014;SDS011;45867;52.480;6.056;2022-07-30T16:00:28;8.25;;;1.95;;
60014;SDS011;45867;52.480;6.056;2022-07-30T16:02:53;4.85;;;2.15;;
60014;SDS011;45867;52.480;6.056;2022-07-30T16:05:20;5.75;;;2.00;;
60014;SDS011;45867;52.480;6.056;2022-07-30T16:07:46;5.22;;;2.05;;
60014;SDS011;45867;52.480;6.056;2022-07-30T16:10:11;6.60;;;2.10;;
60014;SDS011;45867;52.480;6.056;2022-07-30T16:12:36;4.70;;;2.10;;
60014;SDS011;45867;52.480;6.056;2022-07-30T16:15:03;8.38;;;2.17;;
60014;SDS011;45867;52.480;6.056;2022-07-30T16:17:28;10.02;;;2.28;;
60014;SDS011;45867;52.480;6.056;2022-07-30T16:19:54;7.00;;;2.33;;
60014;SDS011;45867;52.480;6.056;2022-07-30T16:22:21;4.38;;;2.00;;
60014;SDS011;45867;52.480;6.056;2022-07-30T16:24:47;4.72;;;2.10;;
60014;SDS011;45867;52.480;6.056;2022-07-30T16:27:12;6.03;;;2.30;;
60014;SDS011;45867;52.480;6.056;2022-07-30T16:29:39;8.77;;;2.85;;
60014;SDS011;45867;52.480;6.056;2022-07-30T16:32:04;16.60;;;3.28;;
60014;SDS011;45867;52.480;6.056;2022-07-30T16:34:29;7.13;;;2.17;;
60014;SDS011;45867;52.480;6.056;2022-07-30T16:36:55;12.77;;;2.30;;
60014;SDS011;45867;52.480;6.056;2022-07-30T16:39:20;8.10;;;2.03;;
60014;SDS011;45867;52.480;6.056;2022-07-30T16:41:45;7.20;;;2.35;;
60014;SDS011;45867;52.480;6.056;2022-07-30T16:44:11;6.82;;;2.00;;
60014;SDS011;45867;52.480;6.056;2022-07-30T16:46:36;9.48;;;2.30;;
60014;SDS011;45867;52.480;6.056;2022-07-30T16:49:02;9.18;;;2.10;;
60014;SDS011;45867;52.480;6.056;2022-07-30T16:51:28;6.53;;;2.22;;
60014;SDS011;45867;52.480;6.056;2022-07-30T16:53:54;6.72;;;2.40;;
60014;SDS011;45867;52.480;6.056;2022-07-30T16:56:19;8.75;;;2.38;;
60014;SDS011;45867;52.480;6.056;2022-07-30T16:58:45;5.13;;;2.15;;
60014;SDS011;45867;52.480;6.056;2022-07-30T17:01:10;6.50;;;2.13;;
60014;SDS011;45867;52.480;6.056;2022-07-30T17:03:35;7.60;;;2.28;;
60014;SDS011;45867;52.480;6.056;2022-07-30T17:06:01;4.10;;;2.00;;
60014;SDS011;45867;52.480;6.056;2022-07-30T17:08:29;7.87;;;2.47;;
60014;SDS011;45867;52.480;6.056;2022-07-30T17:10:58;3.33;;;2.13;;
60014;SDS011;45867;52.480;6.056;2022-07-30T17:13:29;7.28;;;2.35;;
60014;SDS011;45867;52.480;6.056;2022-07-30T17:15:54;6.18;;;2.22;;
60014;SDS011;45867;52.480;6.056;2022-07-30T17:18:19;8.57;;;3.40;;
60014;SDS011;45867;52.480;6.056;2022-07-30T17:20:44;5.43;;;2.30;;
60014;SDS011;45867;52.480;6.056;2022-07-30T17:23:10;4.18;;;2.15;;
60014;SDS011;45867;52.480;6.056;2022-07-30T17:25:35;7.03;;;1.95;;
60014;SDS011;45867;52.480;6.056;2022-07-30T17:28:00;6.72;;;2.00;;
60014;SDS011;45867;52.480;6.056;2022-07-30T17:30:26;6.03;;;2.10;;
60014;SDS011;45867;52.480;6.056;2022-07-30T17:32:52;12.20;;;2.00;;
60014;SDS011;45867;52.480;6.056;2022-07-30T17:35:17;8.25;;;2.10;;
60014;SDS011;45867;52.480;6.056;2022-07-30T17:37:42;9.23;;;2.28;;
60014;SDS011;45867;52.480;6.056;2022-07-30T17:40:08;5.35;;;2.20;;
60014;SDS011;45867;52.480;6.056;2022-07-30T17:42:37;10.10;;;1.88;;
60014;SDS011;45867;52.480;6.056;2022-07-30T17:45:04;6.95;;;2.40;;
60014;SDS011;45867;52.480;6.056;2022-07-30T17:47:29;6.82;;;2.38;;
60014;SDS011;45867;52.480;6.056;2022-07-30T17:49:54;4.93;;;1.92;;
60014;SDS011;45867;52.480;6.056;2022-07-30T17:52:20;5.93;;;2.10;;
60014;SDS011;45867;52.480;6.056;2022-07-30T17:54:45;4.75;;;2.00;;
60014;SDS011;45867;52.480;6.056;2022-07-30T17:57:11;7.23;;;2.33;;
60014;SDS011;45867;52.480;6.056;2022-07-30T17:59:36;4.93;;;1.95;;
60014;SDS011;45867;52.480;6.056;2022-07-30T18:02:01;8.10;;;1.95;;
60014;SDS011;45867;52.480;6.056;2022-07-30T18:04:28;6.45;;;2.10;;
60014;SDS011;45867;52.480;6.056;2022-07-30T18:06:53;5.75;;;2.10;;
60014;SDS011;45867;52.480;6.056;2022-07-30T18:09:18;4.78;;;2.10;;
60014;SDS011;45867;52.480;6.056;2022-07-30T18:11:43;9.30;;;2.25;;
60014;SDS011;45867;52.480;6.056;2022-07-30T18:14:09;5.05;;;2.08;;
60014;SDS011;45867;52.480;6.056;2022-07-30T18:16:42;4.57;;;2.38;;
60014;SDS011;45867;52.480;6.056;2022-07-30T18:19:21;8.75;;;2.22;;
60014;SDS011;45867;52.480;6.056;2022-07-30T18:21:47;5.88;;;2.20;;
60014;SDS011;45867;52.480;6.056;2022-07-30T18:24:12;9.45;;;2.42;;
60014;SDS011;45867;52.480;6.056;2022-07-30T18:26:37;12.95;;;2.22;;
60014;SDS011;45867;52.480;6.056;2022-07-30T18:29:04;9.30;;;2.10;;
60014;SDS011;45867;52.480;6.056;2022-07-30T18:31:30;12.18;;;2.30;;